Etusivu
METAR-TAF:

METAR-TAF

Lentoasemat :

Sundsvall-Härnösand, Ruotsi

Sundsvall-Timrån lentoasema

Leveyspiiri: 62-32N, Pituuspiiri: 017-27E, korkeus merenpinnasta: 4 m

Tämänhetkinen sää

Tämä raportti tehtiin 21 minuuttia sitten, kello 23.50 UTC
Tuuli 3 kn luoteesta
Lämpötila 7°C
Kosteus 87%
Ilmanpaine 1013 hPa
Näkyvyys 10 km tai enemmän
ei pilviä alle 1500 m:ssä eikä cumulonimbus-pilviä

METAR: ESNN 282350Z 31003KT CAVOK 07/05 Q1013

Aika: 02:11 (00:11 UTC)

Sääennuste

Tämä raportti tehtiin 3 tuntia ja 41 minuuttia sitten, kello 20.30 UTC
Ennuste voimassa 28. päivästä klo 21 UTC - 29. päivään klo 01 UTC
Tuuli 2 kn eri suunnista
Näkyvyys 10 km tai enemmän
ei pilviä alle 1500 m:ssä eikä cumulonimbus-pilviä

TAF: ESNN 282030Z 2821/2901 VRB02KT CAVOK

Säähavainnot ja -ennusteet yli 4000 lentoasemalta (METAR- ja TAF-raportit).

Käytössä olevat sääasemat on merkitty karttaan keltaisilla ja punaisilla pisteillä.

Aseta hiiri pisteen päälle nähdäksesi sääaseman nimen.

Klikkaa sitten nähdäksesi säähavainnot ja -ennusteet.

Kartan vaihtaminen: klikkaa mustalla rastilla varustettuja vihreitä pisteitä, niin voit zoomata sisään; viivalla varustettua vihreää pistettä, niin voit zoomata ulos tai vihreitä nuolia, niin pääset viereisille kartoille.


METAR-TAF: